createdAt,value
2022-09-26T01:28:19.242Z,77.23
2022-09-26T01:53:19.506Z,79.19
2022-09-26T03:00:46.394Z,81.59
2022-09-26T03:16:02.975Z,81.85
2022-09-26T03:40:13.395Z,81.11
2022-09-26T03:48:21.214Z,81.18
2022-09-26T03:56:48.862Z,80.87
2022-09-26T04:00:44.393Z,80.75
2022-09-26T04:04:19.572Z,80.80
2022-09-26T04:07:29.671Z,80.83
2022-09-26T04:18:52.514Z,81.04
2022-09-26T04:22:45.360Z,81.10
2022-09-26T04:29:34.700Z,81.10
2022-09-26T04:33:02.153Z,81.14
2022-09-26T04:40:43.418Z,81.21
2022-09-26T05:00:49.171Z,81.40
2022-09-26T05:14:07.466Z,81.67
2022-09-26T05:15:44.224Z,81.71
2022-09-26T05:18:43.699Z,81.79
2022-09-26T05:39:21.978Z,81.61
2022-09-26T05:42:44.648Z,81.51
2022-09-26T05:46:18.639Z,81.30
2022-09-26T05:53:32.276Z,81.02
2022-09-26T05:58:08.433Z,81.04
2022-09-26T06:11:15.472Z,80.79
2022-09-26T06:16:55.594Z,80.45
2022-09-26T06:20:13.576Z,80.34
2022-09-26T06:47:25.743Z,80.29
2022-09-26T06:58:33.564Z,79.40
2022-09-26T07:11:11.110Z,79.20
2022-09-26T07:16:35.797Z,78.69
2022-09-26T07:19:40.879Z,78.25
2022-09-26T07:27:45.326Z,77.45
2022-09-26T07:30:28.133Z,77.48
2022-09-26T07:38:03.653Z,76.47
2022-09-26T07:50:21.946Z,75.29
2022-09-26T07:55:13.592Z,74.32
2022-09-26T08:15:02.978Z,68.97
2022-09-26T08:22:57.243Z,65.29
2022-09-26T08:43:20.159Z,55.64
2022-09-26T08:51:35.189Z,55.89
2022-09-26T09:07:47.487Z,53.42
2022-09-26T09:53:30.716Z,60.51
2022-09-26T09:56:39.301Z,60.43
2022-09-26T09:59:30.681Z,59.38
2022-09-26T10:02:29.131Z,58.54
2022-09-26T10:10:05.841Z,57.77
2022-09-26T10:17:33.248Z,54.10
2022-09-26T10:21:15.557Z,53.47
2022-09-26T10:24:44.751Z,53.78
2022-09-26T10:27:48.221Z,53.16
2022-09-26T10:30:50.622Z,53.45
2022-09-26T10:34:01.095Z,54.27
2022-09-26T10:37:27.531Z,54.37
2022-09-26T10:44:01.574Z,53.29
2022-09-26T10:47:30.878Z,53.57
2022-09-26T10:57:49.762Z,51.45
2022-09-26T11:04:14.032Z,52.17
2022-09-26T11:07:28.529Z,52.62
2022-09-26T11:10:57.071Z,53.92
2022-09-26T11:14:17.551Z,53.63
2022-09-26T11:17:20.385Z,53.84
2022-09-26T11:34:27.373Z,56.14
2022-09-26T11:37:57.000Z,56.60
2022-09-26T11:41:03.227Z,56.14
2022-09-26T11:47:42.152Z,54.02
2022-09-26T11:50:43.788Z,54.30
2022-09-26T11:54:02.947Z,54.26
2022-09-26T11:57:38.500Z,53.69
2022-09-26T12:03:34.218Z,54.02
2022-09-26T12:10:54.945Z,54.83
2022-09-26T12:13:46.806Z,54.48
2022-09-26T12:24:21.638Z,52.23
2022-09-26T12:34:22.868Z,53.45
2022-09-26T12:40:49.169Z,52.55
2022-09-26T12:44:17.332Z,53.37
2022-09-26T12:51:51.065Z,54.81
2022-09-26T12:54:48.218Z,54.89
2022-09-26T12:58:17.931Z,55.90
2022-09-26T13:05:14.399Z,56.42
2022-09-26T13:08:15.954Z,56.57
2022-09-26T13:11:18.710Z,57.49
2022-09-26T13:18:11.623Z,58.41
2022-09-26T13:21:10.845Z,59.73
2022-09-26T13:23:59.992Z,60.26
2022-09-26T13:26:47.340Z,60.60
2022-09-26T13:30:01.027Z,61.03
2022-09-26T13:36:36.729Z,61.32
2022-09-26T13:39:57.028Z,61.66
2022-09-26T13:42:50.700Z,61.60
2022-09-26T13:45:41.197Z,62.11
2022-09-26T13:48:27.990Z,62.30
2022-09-26T13:51:47.020Z,63.21
2022-09-26T13:54:57.719Z,64.00
2022-09-26T13:58:12.612Z,64.11
2022-09-26T14:01:39.062Z,64.70
2022-09-26T14:04:40.362Z,65.14
2022-09-26T14:08:05.048Z,65.26
2022-09-26T14:11:11.734Z,65.78
2022-09-26T14:13:56.235Z,66.31
2022-09-26T14:16:40.020Z,66.16
2022-09-26T14:19:37.822Z,66.48
2022-09-26T14:22:45.538Z,66.18
2022-09-26T14:25:51.200Z,66.47
2022-09-26T14:28:37.940Z,66.50
2022-09-26T14:31:40.183Z,66.85
2022-09-26T14:34:26.959Z,66.72
2022-09-26T14:37:20.868Z,66.06
2022-09-26T14:40:30.182Z,66.34
2022-09-26T14:43:09.099Z,66.70
2022-09-26T14:50:27.252Z,64.83
2022-09-26T14:53:06.506Z,64.67
2022-09-26T14:55:41.374Z,64.58
2022-09-26T14:59:30.546Z,64.73
2022-09-26T15:06:31.741Z,65.16
2022-09-26T15:09:12.034Z,64.96
2022-09-26T15:11:49.527Z,64.89
2022-09-26T15:14:27.124Z,64.37
2022-09-26T15:17:01.303Z,64.27
2022-09-26T15:24:27.810Z,64.12
2022-09-26T15:27:11.901Z,63.97
2022-09-26T15:30:06.654Z,64.31
2022-09-26T15:35:39.531Z,64.37
2022-09-26T15:38:47.063Z,64.75
2022-09-26T15:41:35.733Z,65.41
2022-09-26T15:50:11.308Z,66.58
2022-09-26T15:53:03.682Z,66.97
2022-09-26T15:56:46.685Z,67.29
2022-09-26T16:06:56.986Z,67.90
2022-09-26T16:10:26.568Z,68.00
2022-09-26T16:20:06.607Z,68.99
2022-09-26T16:22:51.909Z,69.09
2022-09-26T16:25:43.327Z,69.35
2022-09-26T16:29:03.641Z,69.69
2022-09-26T16:42:19.086Z,70.35
2022-09-26T16:45:43.311Z,70.44
2022-09-26T16:50:25.665Z,70.63
2022-09-26T17:20:27.816Z,75.43
2022-09-26T17:23:42.281Z,75.46
2022-09-26T17:35:07.662Z,76.67
2022-09-26T17:41:28.571Z,77.07
2022-09-26T17:47:13.727Z,77.78
2022-09-26T17:54:27.673Z,78.26
2022-09-26T17:57:07.407Z,78.60
2022-09-26T17:59:41.933Z,78.76
2022-09-26T18:02:28.436Z,78.90
2022-09-26T18:12:28.176Z,79.68
2022-09-26T18:20:42.595Z,80.05
2022-09-26T18:26:45.943Z,80.28
2022-09-26T18:29:38.552Z,80.25
2022-09-26T18:32:15.203Z,80.00
2022-09-26T18:34:50.459Z,79.52
2022-09-26T18:37:22.863Z,79.48
2022-09-26T18:40:00.151Z,79.21
2022-09-26T18:42:46.722Z,79.08
2022-09-26T18:45:29.262Z,78.97
2022-09-26T18:48:37.579Z,79.13
2022-09-26T18:52:20.133Z,78.97
2022-09-26T18:55:51.264Z,79.25
2022-09-26T18:58:57.153Z,79.52
2022-09-26T19:02:35.303Z,79.87
2022-09-26T19:16:06.531Z,80.61
2022-09-26T19:19:19.285Z,80.98
2022-09-26T19:23:29.461Z,81.19
2022-09-26T19:42:36.208Z,82.31
2022-09-26T19:48:38.527Z,82.88
2022-09-26T19:51:23.320Z,82.86
2022-09-26T19:53:56.913Z,82.91
2022-09-26T19:56:40.428Z,82.92
2022-09-26T19:59:25.360Z,83.02
2022-09-26T20:02:16.630Z,83.00
2022-09-26T20:04:55.912Z,83.16
2022-09-26T20:07:38.083Z,83.09
2022-09-26T20:10:18.174Z,83.18
2022-09-26T20:12:54.591Z,83.32
2022-09-26T20:15:37.826Z,83.39
2022-09-26T20:18:28.396Z,83.74
2022-09-26T20:21:09.954Z,83.64
2022-09-26T20:23:53.931Z,83.66
2022-09-26T20:26:24.834Z,83.85
2022-09-26T20:28:55.498Z,83.79
2022-09-26T20:31:30.017Z,83.73
2022-09-26T20:34:21.793Z,83.85
2022-09-26T20:36:53.293Z,83.91
2022-09-26T20:39:26.005Z,83.88
2022-09-26T20:41:58.736Z,83.91
2022-09-26T20:44:34.098Z,83.87
2022-09-26T20:47:06.436Z,83.96
2022-09-26T20:49:48.126Z,83.98
2022-09-26T20:52:22.418Z,84.30
2022-09-26T20:54:53.323Z,84.31
2022-09-26T20:57:23.901Z,84.46
2022-09-26T21:00:00.035Z,84.71
2022-09-26T21:02:38.232Z,84.89
2022-09-26T21:05:17.686Z,84.95
2022-09-26T21:07:48.383Z,84.85
2022-09-26T21:10:27.243Z,85.20
2022-09-26T21:12:58.020Z,85.32
2022-09-26T21:15:31.089Z,85.36
2022-09-26T21:18:03.955Z,85.43
2022-09-26T21:20:35.171Z,85.58
2022-09-26T21:23:24.280Z,85.54
2022-09-26T21:25:54.629Z,85.85
2022-09-26T21:28:27.523Z,85.73
2022-09-26T21:31:00.383Z,85.63
2022-09-26T21:33:29.331Z,85.77
2022-09-26T21:36:00.345Z,85.86
2022-09-26T21:38:30.845Z,86.02
2022-09-26T21:41:03.799Z,86.30
2022-09-26T21:43:39.008Z,86.18
2022-09-26T21:46:09.772Z,86.08
2022-09-26T21:48:40.154Z,86.15
2022-09-26T21:51:13.797Z,86.27
2022-09-26T21:53:49.198Z,86.10
2022-09-26T21:56:22.155Z,86.42
2022-09-26T21:58:51.134Z,86.33
2022-09-26T22:01:21.817Z,86.37
2022-09-26T22:03:53.179Z,86.36
2022-09-26T22:06:23.564Z,86.24
2022-09-26T22:08:54.372Z,86.32
2022-09-26T22:11:24.734Z,86.46
2022-09-26T22:13:56.309Z,86.38
2022-09-26T22:16:27.728Z,86.35
2022-09-26T22:18:58.262Z,86.19
2022-09-26T22:21:28.994Z,86.29
2022-09-26T22:24:00.073Z,86.34
2022-09-26T22:26:30.489Z,86.46
2022-09-26T22:29:00.929Z,86.46
2022-09-26T22:31:31.373Z,86.39
2022-09-26T22:34:02.351Z,86.49
2022-09-26T22:36:33.308Z,86.45
2022-09-26T22:39:03.867Z,86.41
2022-09-26T22:41:34.431Z,86.56
2022-09-26T22:44:05.004Z,86.69
2022-09-26T22:46:36.305Z,86.62
2022-09-26T22:49:07.045Z,86.87
2022-09-26T22:51:37.552Z,86.93
2022-09-26T22:54:08.004Z,86.81
2022-09-26T22:56:38.404Z,86.71
2022-09-26T22:59:08.747Z,86.99
2022-09-26T23:01:39.173Z,86.97
2022-09-26T23:04:09.790Z,86.91
2022-09-26T23:06:40.137Z,86.98
2022-09-26T23:09:10.534Z,86.88
2022-09-26T23:11:40.971Z,87.15
2022-09-26T23:14:11.453Z,87.14
2022-09-26T23:16:42.419Z,87.19
2022-09-26T23:19:12.969Z,87.06
2022-09-26T23:21:43.426Z,87.23
2022-09-26T23:24:13.905Z,87.10
2022-09-26T23:26:44.278Z,87.10
2022-09-26T23:29:14.662Z,87.10
2022-09-26T23:31:45.126Z,87.14
2022-09-26T23:34:15.537Z,87.31
2022-09-26T23:36:46.909Z,87.18
2022-09-26T23:39:17.479Z,87.17
2022-09-26T23:41:48.064Z,87.33
2022-09-26T23:44:18.462Z,87.18
2022-09-26T23:46:49.099Z,87.35
2022-09-26T23:49:22.323Z,87.57
2022-09-26T23:51:52.980Z,87.56
2022-09-26T23:54:23.333Z,87.51
2022-09-26T23:56:53.846Z,87.60
2022-09-26T23:59:25.344Z,87.49
